createdAt,value
2018-06-22T00:24:08.958Z,8.00
2018-06-22T00:29:06.007Z,8.00
2018-06-22T00:31:34.813Z,8.10
2018-06-22T00:34:03.667Z,8.20
2018-06-22T00:36:32.489Z,8.30
2018-06-22T00:39:01.487Z,8.30
2018-06-22T00:41:30.192Z,8.40
2018-06-22T00:43:58.725Z,8.50
2018-06-22T00:46:27.605Z,8.50
2018-06-22T00:48:56.185Z,8.60
2018-06-22T00:51:24.871Z,8.60
2018-06-22T00:54:04.757Z,8.70
2018-06-22T00:56:33.519Z,8.70
2018-06-22T00:59:02.089Z,8.80
2018-06-22T01:01:30.553Z,8.80
2018-06-22T01:03:59.385Z,8.80
2018-06-22T01:06:28.189Z,8.80
2018-06-22T01:08:56.673Z,8.80
2018-06-22T01:11:25.654Z,8.80
2018-06-22T01:13:54.313Z,8.80
2018-06-22T01:16:23.590Z,8.80
2018-06-22T01:18:52.316Z,8.70
2018-06-22T01:21:21.162Z,8.70
2018-06-22T01:23:49.993Z,8.70
2018-06-22T01:26:18.617Z,8.60
2018-06-22T01:28:47.546Z,8.70
2018-06-22T01:31:17.335Z,8.60
2018-06-22T02:33:28.427Z,8.20
2018-06-22T02:35:57.499Z,8.20
2018-06-22T02:38:26.357Z,8.10
2018-06-22T02:40:57.196Z,8.10
2018-06-22T02:45:54.779Z,8.10
2018-06-22T02:48:23.404Z,8.10
2018-06-22T02:50:52.140Z,8.10
2018-06-22T02:53:20.870Z,8.00
2018-06-22T02:55:49.751Z,8.00
2018-06-22T02:58:18.556Z,8.00
2018-06-22T03:00:47.319Z,8.00
2018-06-22T03:03:16.207Z,8.00
2018-06-22T03:05:45.414Z,7.90
2018-06-22T03:08:14.148Z,7.90
2018-06-22T03:10:42.880Z,7.90
2018-06-22T03:15:40.135Z,7.90
2018-06-22T03:18:08.826Z,7.90
2018-06-22T03:20:37.509Z,7.90
2018-06-22T03:23:06.348Z,7.90
2018-06-22T03:25:35.056Z,7.90
2018-06-22T03:28:03.924Z,7.90
2018-06-22T03:30:32.686Z,7.80
2018-06-22T03:33:01.315Z,7.90
2018-06-22T03:35:30.136Z,7.80
2018-06-22T03:37:58.805Z,7.90
2018-06-22T03:40:27.584Z,7.90
2018-06-22T03:42:56.240Z,7.90
2018-06-22T03:45:25.550Z,8.00
2018-06-22T03:47:54.139Z,8.10
2018-06-22T03:50:23.012Z,8.20
2018-06-22T03:52:51.713Z,8.30
2018-06-22T03:55:20.469Z,8.40
2018-06-22T03:57:49.229Z,8.60
2018-06-22T04:00:18.047Z,8.80
2018-06-22T04:02:46.930Z,8.90
2018-06-22T04:05:16.549Z,8.90
2018-06-22T04:10:14.525Z,8.80
2018-06-22T04:12:43.265Z,8.80
2018-06-22T04:15:12.105Z,8.90
2018-06-22T04:17:51.131Z,9.00
2018-06-22T04:20:21.140Z,9.10
2018-06-22T04:22:50.663Z,9.20
2018-06-22T04:25:20.603Z,9.20
2018-06-22T04:27:50.177Z,9.10
2018-06-22T04:30:19.072Z,9.00
2018-06-22T04:32:48.659Z,8.80
2018-06-22T04:35:17.810Z,8.70
2018-06-22T04:37:46.643Z,8.70
2018-06-22T04:40:15.525Z,8.60
2018-06-22T04:42:44.097Z,8.60
2018-06-22T04:45:12.828Z,8.60
2018-06-22T04:47:41.343Z,8.60
2018-06-22T04:50:09.940Z,8.60
2018-06-22T04:52:38.438Z,8.60
2018-06-22T04:55:07.018Z,8.70
2018-06-22T04:57:35.725Z,8.70
2018-06-22T05:00:04.429Z,8.70
2018-06-22T05:02:32.989Z,8.70
2018-06-22T05:05:01.730Z,8.70
2018-06-22T05:07:30.504Z,8.70
2018-06-22T05:09:59.225Z,8.70
2018-06-22T05:14:56.242Z,8.80
2018-06-22T05:17:25.088Z,8.80
2018-06-22T05:19:53.683Z,8.80
2018-06-22T05:22:22.192Z,8.70
2018-06-22T05:24:51.049Z,8.80
2018-06-22T05:27:19.729Z,8.70
2018-06-22T05:29:48.330Z,8.80
2018-06-22T05:32:16.933Z,8.80
2018-06-22T05:34:45.644Z,8.80
2018-06-22T05:37:14.371Z,8.80
2018-06-22T05:42:12.484Z,8.80
2018-06-22T05:44:41.170Z,8.80
2018-06-22T05:47:10.064Z,8.80
2018-06-22T05:49:38.854Z,8.80
2018-06-22T05:52:07.691Z,8.80
2018-06-22T05:54:36.224Z,8.90
2018-06-22T05:57:05.082Z,8.90
2018-06-22T05:59:33.744Z,8.90
2018-06-22T06:02:02.580Z,9.00
2018-06-22T06:04:31.945Z,9.00
2018-06-22T06:07:00.806Z,9.00
2018-06-22T06:09:29.633Z,9.00
2018-06-22T06:11:58.417Z,9.00
2018-06-22T06:14:27.109Z,9.00
2018-06-22T06:16:55.896Z,8.90
2018-06-22T06:19:24.824Z,8.90
2018-06-22T06:24:21.990Z,8.90
2018-06-22T06:29:19.154Z,8.90
2018-06-22T06:31:48.385Z,8.90
2018-06-22T06:34:17.357Z,8.90
2018-06-22T06:39:14.668Z,8.90
2018-06-22T06:41:43.874Z,9.00
2018-06-22T06:44:12.770Z,9.00
2018-06-22T06:46:41.340Z,8.90
2018-06-22T06:49:09.928Z,8.90
2018-06-22T06:51:38.676Z,8.90
2018-06-22T06:56:35.349Z,8.90
2018-06-22T06:59:04.232Z,8.90
2018-06-22T07:04:02.087Z,9.00
2018-06-22T07:06:30.588Z,9.10
2018-06-22T07:08:59.152Z,9.10
2018-06-22T07:11:27.657Z,9.10
2018-06-22T07:13:56.618Z,9.20
2018-06-22T07:16:25.253Z,9.30
2018-06-22T07:23:50.609Z,9.50
2018-06-22T07:26:19.440Z,9.60
2018-06-22T07:28:48.339Z,9.70
2018-06-22T07:31:17.070Z,9.80
2018-06-22T07:36:14.215Z,10.10
2018-06-22T07:38:42.824Z,10.20
2018-06-22T07:41:11.657Z,10.30
2018-06-22T07:43:40.310Z,10.30
2018-06-22T07:46:08.928Z,10.40
2018-06-22T07:48:37.838Z,10.40
2018-06-22T07:51:06.686Z,10.30
2018-06-22T07:53:35.510Z,10.20
2018-06-22T07:56:04.657Z,10.10
2018-06-22T08:01:01.863Z,10.00
2018-06-22T08:03:30.692Z,9.90
2018-06-22T08:05:59.889Z,9.90
2018-06-22T08:08:28.681Z,9.90
2018-06-22T08:10:57.249Z,9.90
2018-06-22T08:13:26.090Z,9.90
2018-06-22T08:15:54.840Z,10.00
2018-06-22T08:18:23.522Z,9.90
2018-06-22T08:20:52.522Z,9.90
2018-06-22T08:23:21.172Z,9.90
2018-06-22T08:25:49.699Z,9.90
2018-06-22T08:28:18.670Z,9.90
2018-06-22T08:30:48.044Z,10.10
2018-06-22T08:33:17.340Z,10.10
2018-06-22T08:35:46.020Z,10.20
2018-06-22T08:38:14.600Z,10.10
2018-06-22T08:40:43.300Z,10.10
2018-06-22T08:43:12.033Z,10.20
2018-06-22T08:45:40.856Z,10.10
2018-06-22T08:48:09.835Z,10.10
2018-06-22T08:50:38.687Z,10.10
2018-06-22T08:53:07.448Z,10.20
2018-06-22T08:55:36.085Z,10.30
2018-06-22T08:58:05.054Z,10.40
2018-06-22T09:00:33.998Z,10.60
2018-06-22T09:03:03.299Z,10.80
2018-06-22T09:05:31.979Z,10.90
2018-06-22T09:08:01.629Z,11.00
2018-06-22T09:10:30.745Z,11.00
2018-06-22T09:12:59.600Z,11.10
2018-06-22T09:15:28.420Z,11.20
2018-06-22T09:17:57.278Z,11.30
2018-06-22T09:20:26.504Z,11.20
2018-06-22T09:22:56.339Z,11.30
2018-06-22T09:25:26.437Z,11.20
2018-06-22T09:27:55.013Z,11.10
2018-06-22T09:30:24.003Z,11.00
2018-06-22T09:32:52.725Z,10.80
2018-06-22T09:35:21.278Z,10.70
2018-06-22T09:37:49.779Z,10.80
2018-06-22T09:40:18.730Z,10.80
2018-06-22T09:42:48.151Z,10.90
2018-06-22T09:45:16.711Z,10.90
2018-06-22T09:47:45.261Z,10.90
2018-06-22T09:50:13.901Z,10.90
2018-06-22T09:52:42.424Z,11.00
2018-06-22T09:55:11.142Z,11.20
2018-06-22T09:57:40.207Z,11.30
2018-06-22T10:00:08.976Z,11.50
2018-06-22T10:02:37.834Z,11.60
2018-06-22T10:05:06.664Z,11.60
2018-06-22T10:07:35.615Z,11.60
2018-06-22T10:10:04.272Z,11.50
2018-06-22T10:12:33.257Z,11.50
2018-06-22T10:15:02.593Z,11.50
2018-06-22T10:17:32.169Z,11.50
2018-06-22T10:20:01.219Z,11.50
2018-06-22T10:22:30.887Z,11.40
2018-06-22T10:24:59.726Z,11.30
2018-06-22T10:29:58.073Z,11.30
2018-06-22T10:32:27.082Z,11.30
2018-06-22T10:34:55.754Z,11.50
2018-06-22T10:37:24.334Z,11.60
2018-06-22T10:39:53.612Z,11.70
2018-06-22T10:42:22.320Z,11.80
2018-06-22T10:44:51.078Z,12.00
2018-06-22T10:47:19.632Z,12.00
2018-06-22T10:49:48.205Z,11.90
2018-06-22T10:52:16.831Z,11.70
2018-06-22T10:54:45.570Z,11.60
2018-06-22T10:57:14.374Z,11.50
2018-06-22T10:59:43.541Z,11.30
2018-06-22T11:02:12.092Z,11.20
2018-06-22T11:04:40.848Z,11.20
2018-06-22T11:07:10.001Z,11.10
2018-06-22T11:09:39.238Z,11.10
2018-06-22T11:12:07.893Z,11.10
2018-06-22T11:14:36.495Z,11.00
2018-06-22T11:17:06.434Z,11.00
2018-06-22T11:19:35.448Z,11.00
2018-06-22T11:22:07.030Z,11.10
2018-06-22T11:24:36.993Z,11.20
2018-06-22T11:27:05.803Z,11.40
2018-06-22T11:32:06.190Z,11.70
2018-06-22T11:34:35.369Z,11.70
2018-06-22T11:37:05.725Z,11.80
2018-06-22T11:39:34.794Z,11.80
2018-06-22T11:42:04.072Z,11.80
2018-06-22T11:44:35.545Z,11.70
2018-06-22T11:47:07.812Z,11.70
2018-06-22T11:49:39.239Z,11.70
2018-06-22T11:52:10.246Z,11.70
2018-06-22T11:54:40.601Z,11.60
2018-06-22T11:57:12.029Z,11.50
2018-06-22T11:59:42.728Z,11.50
2018-06-22T12:02:13.197Z,11.50
2018-06-22T12:04:43.187Z,11.40
2018-06-22T12:07:16.275Z,11.30
2018-06-22T12:09:46.099Z,11.20
2018-06-22T12:12:15.499Z,11.10
2018-06-22T12:14:44.735Z,11.00
2018-06-22T12:17:14.121Z,11.00
2018-06-22T12:19:43.648Z,11.10
2018-06-22T12:22:12.530Z,11.30
2018-06-22T12:24:41.645Z,11.60
2018-06-22T12:27:10.827Z,12.00
2018-06-22T12:29:39.882Z,12.40
2018-06-22T12:32:08.797Z,12.50
2018-06-22T12:34:37.782Z,12.50
2018-06-22T12:37:07.016Z,12.30
2018-06-22T12:39:36.093Z,12.10
2018-06-22T12:42:06.549Z,12.10
2018-06-22T12:44:36.712Z,12.20
2018-06-22T12:47:06.692Z,12.40
2018-06-22T12:49:40.178Z,12.50
2018-06-22T12:52:12.784Z,12.60
2018-06-22T12:54:43.450Z,12.50
2018-06-22T12:57:12.540Z,12.40
2018-06-22T12:59:42.627Z,12.30
2018-06-22T13:02:12.494Z,12.10
2018-06-22T13:04:41.567Z,12.00
2018-06-22T13:07:11.834Z,11.80
2018-06-22T13:12:13.937Z,11.50
2018-06-22T13:14:43.877Z,11.30
2018-06-22T13:17:15.615Z,11.20
2018-06-22T13:19:47.428Z,11.00
2018-06-22T13:22:16.823Z,10.90
2018-06-22T13:24:46.685Z,10.90
2018-06-22T13:27:17.003Z,10.90
2018-06-22T13:32:17.364Z,10.80
2018-06-22T13:34:47.793Z,10.80
2018-06-22T13:37:18.219Z,10.80
2018-06-22T13:39:48.696Z,10.70
2018-06-22T13:42:17.947Z,10.70
2018-06-22T13:44:47.546Z,10.70
2018-06-22T13:47:18.160Z,10.70
2018-06-22T13:49:53.393Z,10.60
2018-06-22T13:55:17.674Z,10.80
2018-06-22T13:57:47.549Z,10.80
2018-06-22T14:00:16.552Z,10.90
2018-06-22T14:02:46.848Z,11.00
2018-06-22T14:05:21.152Z,11.10
2018-06-22T14:07:49.883Z,11.30
2018-06-22T14:10:19.196Z,11.50
2018-06-22T14:12:47.959Z,11.70
2018-06-22T14:15:16.755Z,11.80
2018-06-22T14:17:45.311Z,12.00
2018-06-22T14:20:14.318Z,12.20
2018-06-22T14:22:42.916Z,12.50
2018-06-22T14:25:11.700Z,12.80
2018-06-22T14:27:40.390Z,12.90
2018-06-22T14:30:10.756Z,13.00
2018-06-22T14:32:39.643Z,13.20
2018-06-22T14:35:08.784Z,13.10
2018-06-22T14:37:37.379Z,13.00
2018-06-22T14:40:06.070Z,12.90
2018-06-22T14:42:35.516Z,12.90
2018-06-22T14:45:04.625Z,13.20
2018-06-22T14:47:33.209Z,13.40
2018-06-22T14:50:01.991Z,13.70
2018-06-22T14:52:30.668Z,13.90
2018-06-22T14:55:04.786Z,14.30
2018-06-22T14:57:39.147Z,14.50
2018-06-22T15:00:13.108Z,14.60
2018-06-22T15:02:47.066Z,14.70
2018-06-22T15:05:21.056Z,14.80
2018-06-22T15:10:22.972Z,14.80
2018-06-22T15:12:51.709Z,14.70
2018-06-22T15:15:20.724Z,14.60
2018-06-22T15:17:53.404Z,14.40
2018-06-22T15:22:51.343Z,14.00
2018-06-22T15:30:16.882Z,14.00
2018-06-22T15:32:45.941Z,14.00
2018-06-22T15:35:20.238Z,13.90
2018-06-22T15:37:54.534Z,13.70
2018-06-22T15:40:28.500Z,13.50
2018-06-22T15:43:02.716Z,13.30
2018-06-22T15:45:36.767Z,13.20
2018-06-22T15:48:11.224Z,13.10
2018-06-22T15:50:45.174Z,13.10
2018-06-22T15:53:19.199Z,13.10
2018-06-22T15:55:49.525Z,13.10
2018-06-22T15:58:18.539Z,13.20
2018-06-22T16:00:47.367Z,13.30
2018-06-22T16:03:21.634Z,13.30
2018-06-22T16:05:50.300Z,13.30
2018-06-22T16:08:18.970Z,13.30
2018-06-22T16:13:21.625Z,13.30
2018-06-22T16:15:55.617Z,13.30
2018-06-22T16:18:32.970Z,13.40
2018-06-22T16:21:06.982Z,13.40
2018-06-22T16:23:40.990Z,13.30
2018-06-22T16:26:14.908Z,13.30
2018-06-22T16:28:44.433Z,13.10
2018-06-22T16:31:13.065Z,13.00
2018-06-22T16:33:46.842Z,12.80
2018-06-22T16:36:15.494Z,12.70
2018-06-22T16:38:44.258Z,12.70
2018-06-22T16:41:13.210Z,12.80
2018-06-22T16:43:41.927Z,12.90
2018-06-22T16:46:10.660Z,13.10
2018-06-22T16:48:39.267Z,13.20
2018-06-22T16:51:07.863Z,13.20
2018-06-22T16:53:36.565Z,13.20
2018-06-22T16:56:05.988Z,13.20
2018-06-22T16:58:38.594Z,13.20
2018-06-22T17:01:09.428Z,13.10
2018-06-22T17:03:38.064Z,13.10
2018-06-22T17:06:08.045Z,13.00
2018-06-22T17:08:41.986Z,12.90
2018-06-22T17:11:15.910Z,12.90
2018-06-22T17:13:49.806Z,12.80
2018-06-22T17:16:24.650Z,12.70
2018-06-22T17:18:55.016Z,12.60
2018-06-22T17:23:52.465Z,12.40
2018-06-22T17:26:21.164Z,12.40
2018-06-22T17:28:49.722Z,12.30
2018-06-22T17:31:18.258Z,12.20
2018-06-22T17:33:46.826Z,12.20
2018-06-22T17:36:15.463Z,12.10
2018-06-22T17:38:44.220Z,12.10
2018-06-22T17:41:14.167Z,12.00
2018-06-22T17:43:42.872Z,12.00
2018-06-22T17:46:11.609Z,11.90
2018-06-22T17:48:41.293Z,11.90
2018-06-22T17:51:10.665Z,11.80
2018-06-22T17:53:40.609Z,11.80
2018-06-22T17:56:09.856Z,11.70
2018-06-22T17:58:38.565Z,11.60
2018-06-22T18:01:12.487Z,11.60
2018-06-22T18:03:47.545Z,11.70
2018-06-22T18:06:21.590Z,11.70
2018-06-22T18:08:50.698Z,11.80
2018-06-22T18:11:24.724Z,11.80
2018-06-22T18:13:53.632Z,11.80
2018-06-22T18:16:22.283Z,11.80
2018-06-22T18:21:19.246Z,11.70
2018-06-22T18:28:45.904Z,11.60
2018-06-22T18:31:15.067Z,11.50
2018-06-22T18:33:43.696Z,11.40
2018-06-22T18:36:12.282Z,11.40
2018-06-22T18:38:46.522Z,11.30
2018-06-22T18:41:15.395Z,11.30
2018-06-22T18:46:17.702Z,11.30
2018-06-22T18:48:46.927Z,11.20
2018-06-22T18:51:15.416Z,11.20
2018-06-22T18:53:49.651Z,11.20
2018-06-22T18:56:23.737Z,11.20
2018-06-22T18:58:57.510Z,11.20
2018-06-22T19:01:31.323Z,11.20
2018-06-22T19:03:59.884Z,11.20
2018-06-22T19:06:28.586Z,11.20
2018-06-22T19:08:57.061Z,11.20
2018-06-22T19:11:26.622Z,11.10
2018-06-22T19:13:55.202Z,11.00
2018-06-22T19:16:24.531Z,10.80
2018-06-22T19:18:53.244Z,10.60
2018-06-22T19:21:21.911Z,10.50
2018-06-22T19:23:51.121Z,10.30
2018-06-22T19:26:19.821Z,10.20
2018-06-22T19:28:48.567Z,10.10
2018-06-22T19:31:17.319Z,10.00
2018-06-22T19:33:46.042Z,10.00
2018-06-22T19:36:14.885Z,9.90
2018-06-22T19:38:43.519Z,9.90
2018-06-22T19:41:12.950Z,9.90
2018-06-22T19:43:47.088Z,9.80
2018-06-22T19:46:21.842Z,9.80
2018-06-22T19:48:55.679Z,9.70
2018-06-22T19:51:30.739Z,9.60
2018-06-22T19:54:04.633Z,9.60
2018-06-22T19:56:33.879Z,9.50
2018-06-22T19:59:03.217Z,9.50
2018-06-22T20:01:32.105Z,9.40
2018-06-22T20:04:00.872Z,9.40
2018-06-22T20:06:29.614Z,9.30
2018-06-22T20:08:58.503Z,9.30
2018-06-22T20:11:27.602Z,9.30
2018-06-22T20:13:56.535Z,9.20
2018-06-22T20:16:25.207Z,9.20
2018-06-22T20:18:54.831Z,9.20
2018-06-22T20:21:24.123Z,9.20
2018-06-22T20:23:53.541Z,9.20
2018-06-22T20:26:22.809Z,9.20
2018-06-22T20:28:53.597Z,9.30
2018-06-22T20:31:28.602Z,9.30
2018-06-22T20:34:01.944Z,9.30
2018-06-22T20:36:36.496Z,9.30
2018-06-22T20:39:12.170Z,9.30
2018-06-22T20:42:46.189Z,9.40
2018-06-22T20:45:21.450Z,9.40
2018-06-22T20:47:56.025Z,9.40
2018-06-22T20:50:31.986Z,9.40
2018-06-22T20:53:00.902Z,9.50
2018-06-22T20:55:30.535Z,9.50
2018-06-22T20:58:00.153Z,9.50
2018-06-22T21:00:28.722Z,9.50
2018-06-22T21:02:58.418Z,9.50
2018-06-22T21:05:27.720Z,9.50
2018-06-22T21:07:56.721Z,9.50
2018-06-22T21:10:24.918Z,9.50
2018-06-22T21:12:53.910Z,9.50
2018-06-22T21:15:22.398Z,9.60
2018-06-22T21:17:51.761Z,9.60
2018-06-22T21:20:21.486Z,9.60
2018-06-22T21:22:50.656Z,9.60
2018-06-22T21:25:19.434Z,9.60
2018-06-22T21:27:53.162Z,9.70
2018-06-22T21:30:26.898Z,9.70
2018-06-22T21:33:00.593Z,9.70
2018-06-22T21:35:34.160Z,9.70
2018-06-22T21:38:07.840Z,9.70
2018-06-22T21:40:36.046Z,9.70
2018-06-22T21:43:05.346Z,9.70
2018-06-22T21:45:33.732Z,9.70
2018-06-22T21:48:03.198Z,9.70
2018-06-22T21:50:31.536Z,9.70
2018-06-22T21:53:01.094Z,9.70
2018-06-22T21:55:30.414Z,9.70
2018-06-22T21:57:58.987Z,9.70
2018-06-22T22:00:29.982Z,9.70
2018-06-22T22:02:59.150Z,9.70
2018-06-22T22:05:27.497Z,9.60
2018-06-22T22:07:55.369Z,9.60
2018-06-22T22:10:29.266Z,9.60
2018-06-22T22:12:58.263Z,9.50
2018-06-22T22:15:26.973Z,9.50
2018-06-22T22:17:54.973Z,9.40
2018-06-22T22:20:22.730Z,9.40
2018-06-22T22:22:51.238Z,9.40
2018-06-22T22:25:19.395Z,9.30
2018-06-22T22:27:48.926Z,9.30
2018-06-22T22:30:16.877Z,9.30
2018-06-22T22:32:44.684Z,9.30
2018-06-22T22:35:12.473Z,9.30
2018-06-22T22:37:41.091Z,9.30
2018-06-22T22:40:10.051Z,9.40
2018-06-22T22:42:38.936Z,9.40
2018-06-22T22:45:07.034Z,9.40
2018-06-22T22:47:35.006Z,9.40
2018-06-22T22:50:03.101Z,9.40
2018-06-22T22:52:31.026Z,9.40
2018-06-22T22:54:58.734Z,9.40
2018-06-22T22:57:26.875Z,9.40
2018-06-22T22:59:54.757Z,9.40
2018-06-22T23:02:23.915Z,9.40
2018-06-22T23:04:51.839Z,9.40
2018-06-22T23:07:19.672Z,9.40
2018-06-22T23:09:48.223Z,9.40
2018-06-22T23:12:17.003Z,9.40
2018-06-22T23:17:13.760Z,9.40
2018-06-22T23:19:42.464Z,9.40
2018-06-22T23:22:11.244Z,9.40
2018-06-22T23:27:06.795Z,9.40
2018-06-22T23:29:35.479Z,9.40
2018-06-22T23:32:03.379Z,9.40
2018-06-22T23:34:32.051Z,9.50
2018-06-22T23:37:00.526Z,9.50
2018-06-22T23:39:29.051Z,9.50
2018-06-22T23:41:57.024Z,9.50
2018-06-22T23:44:25.783Z,9.50
2018-06-22T23:46:54.579Z,9.50
2018-06-22T23:49:23.057Z,9.50
2018-06-22T23:51:50.824Z,9.50
2018-06-22T23:54:18.728Z,9.60
2018-06-22T23:56:46.430Z,9.60
2018-06-22T23:59:14.433Z,9.60
